Time;durP1;ratioP1;P1;durP2;ratioP2;P2;SDS_P1;SDS_P2;PMS_P1;PMS_P2;Temp;Humidity;BMP_temperature;BMP_pressure;BME280_temperature;BME280_humidity;BME280_pressure;Samples;Min_cycle;Max_cycle;Signal;HPM_P1;HPM_P2
2021/03/12 00:00:24;;;;;;;1.13;0.40;;;7.40;99.90;;;;;;5070391;28;20083;-81
2021/03/12 00:02:51;;;;;;;2.38;0.45;;;7.40;99.90;;;;;;5071049;28;20124;-82
2021/03/12 00:05:17;;;;;;;2.00;0.50;;;7.30;99.90;;;;;;5071582;28;20072;-82
2021/03/12 00:07:44;;;;;;;3.40;0.50;;;7.30;99.90;;;;;;5071289;28;20173;-82
2021/03/12 00:10:14;;;;;;;2.33;0.50;;;7.30;99.90;;;;;;5071232;28;20075;-81
2021/03/12 00:12:41;;;;;;;2.25;0.43;;;7.40;99.90;;;;;;5071602;28;20143;-82
2021/03/12 00:15:13;;;;;;;2.97;0.60;;;7.40;99.90;;;;;;5087241;28;20139;-81
2021/03/12 00:17:40;;;;;;;2.47;0.50;;;7.40;99.90;;;;;;5071654;28;20048;-81
2021/03/12 00:20:12;;;;;;;3.45;0.63;;;7.50;99.90;;;;;;5081948;28;20110;-82
2021/03/12 00:22:40;;;;;;;1.58;0.50;;;7.50;99.90;;;;;;5080139;28;20044;-81
2021/03/12 00:25:11;;;;;;;1.48;0.40;;;7.50;99.90;;;;;;5076124;28;20443;-81
2021/03/12 00:27:39;;;;;;;1.65;0.40;;;7.50;99.90;;;;;;5071331;28;20100;-82
2021/03/12 00:30:09;;;;;;;1.27;0.45;;;7.60;99.90;;;;;;5069439;28;20139;-82
2021/03/12 00:32:37;;;;;;;2.03;0.50;;;7.50;99.90;;;;;;5070747;28;20360;-81
2021/03/12 00:35:06;;;;;;;3.00;0.57;;;7.60;99.90;;;;;;5070362;28;20147;-81
2021/03/12 00:37:33;;;;;;;1.13;0.38;;;7.60;99.90;;;;;;5070357;28;20581;-81
2021/03/12 00:40:00;;;;;;;1.27;0.45;;;7.60;99.90;;;;;;5070600;28;20127;-82
2021/03/12 00:42:26;;;;;;;2.25;0.50;;;7.60;99.80;;;;;;5070715;28;20140;-82
2021/03/12 00:44:54;;;;;;;2.00;0.65;;;7.60;99.90;;;;;;5070651;28;20145;-82
2021/03/12 00:47:21;;;;;;;3.05;0.55;;;7.50;99.90;;;;;;5071153;28;20139;-82
2021/03/12 00:49:48;;;;;;;2.80;0.50;;;7.50;99.90;;;;;;5068711;28;20052;-82
2021/03/12 00:52:14;;;;;;;2.10;0.60;;;7.70;99.80;;;;;;5070539;28;20052;-81
2021/03/12 00:54:41;;;;;;;2.20;0.57;;;7.70;99.70;;;;;;5077688;28;20079;-82
2021/03/12 00:57:07;;;;;;;1.67;0.60;;;7.80;99.80;;;;;;5080517;28;20068;-81
2021/03/12 00:59:34;;;;;;;2.50;0.40;;;7.70;99.80;;;;;;5080187;28;20041;-80
2021/03/12 01:02:02;;;;;;;2.97;0.40;;;7.70;99.90;;;;;;5070264;28;20080;-81
2021/03/12 01:04:28;;;;;;;2.42;0.60;;;7.70;99.90;;;;;;5068430;28;20060;-80
2021/03/12 01:06:55;;;;;;;3.50;0.75;;;7.60;99.90;;;;;;5070819;28;20182;-81
2021/03/12 01:09:22;;;;;;;2.60;0.50;;;7.80;99.70;;;;;;5083103;28;20080;-81
2021/03/12 01:11:48;;;;;;;2.72;0.50;;;7.80;99.40;;;;;;5070577;28;20128;-80
2021/03/12 01:14:15;;;;;;;2.65;0.80;;;7.70;99.80;;;;;;5070802;28;20449;-81
2021/03/12 01:16:42;;;;;;;1.02;0.30;;;7.70;99.70;;;;;;5070423;28;20045;-80
2021/03/12 01:19:10;;;;;;;1.65;0.50;;;7.80;99.50;;;;;;5069585;28;20135;-81
2021/03/12 01:21:37;;;;;;;2.17;0.52;;;7.70;99.60;;;;;;5069746;28;20105;-81
2021/03/12 01:24:06;;;;;;;3.45;0.68;;;7.80;99.80;;;;;;5069557;28;20136;-81
2021/03/12 01:26:32;;;;;;;1.30;0.40;;;7.80;99.30;;;;;;5068718;28;20049;-83
2021/03/12 01:28:59;;;;;;;3.30;0.55;;;7.90;99.00;;;;;;5070031;28;20135;-84
2021/03/12 01:31:26;;;;;;;2.20;0.60;;;7.70;99.00;;;;;;5070622;28;20332;-81
2021/03/12 01:33:52;;;;;;;2.92;0.68;;;7.90;98.60;;;;;;5070291;28;20063;-84
2021/03/12 01:36:20;;;;;;;5.40;0.55;;;7.90;98.50;;;;;;5073580;28;20159;-82
2021/03/12 01:38:46;;;;;;;1.83;0.50;;;7.90;98.10;;;;;;5076182;28;20105;-81
2021/03/12 01:41:13;;;;;;;1.80;0.68;;;7.90;97.80;;;;;;5077218;28;20124;-80
2021/03/12 01:43:40;;;;;;;2.92;0.70;;;7.90;98.30;;;;;;5078935;28;20319;-80
2021/03/12 01:46:07;;;;;;;4.50;0.60;;;7.90;98.00;;;;;;5070049;28;20127;-80
2021/03/12 01:48:33;;;;;;;4.22;0.68;;;7.90;98.00;;;;;;5071083;28;20053;-80
2021/03/12 01:51:04;;;;;;;3.95;0.50;;;7.90;97.50;;;;;;5078811;28;20127;-82
2021/03/12 01:53:33;;;;;;;4.00;0.70;;;7.90;97.60;;;;;;5076752;28;20492;-82
2021/03/12 01:56:01;;;;;;;3.08;0.63;;;7.90;97.90;;;;;;5074365;28;20068;-81
2021/03/12 01:58:28;;;;;;;2.80;0.63;;;7.80;98.10;;;;;;5073630;28;20182;-82
2021/03/12 02:00:55;;;;;;;2.90;0.50;;;7.80;98.10;;;;;;5073325;28;20051;-82
2021/03/12 02:03:25;;;;;;;1.83;0.50;;;7.80;98.30;;;;;;5074053;28;20059;-81
2021/03/12 02:05:54;;;;;;;1.90;0.68;;;7.80;98.00;;;;;;5074318;28;20048;-81
2021/03/12 02:08:21;;;;;;;1.45;0.40;;;7.80;98.00;;;;;;5074667;28;20087;-81
2021/03/12 02:10:50;;;;;;;2.85;0.63;;;7.80;97.80;;;;;;5073385;28;20072;-81
2021/03/12 02:13:31;;;;;;;2.30;0.50;;;7.90;97.70;;;;;;5072590;28;20045;-81
2021/03/12 02:16:07;;;;;;;4.15;0.70;;;7.80;97.60;;;;;;5035732;28;20068;-81
2021/03/12 02:18:53;;;;;;;2.15;0.55;;;7.90;97.20;;;;;;5071246;28;20048;-81
2021/03/12 02:21:26;;;;;;;2.40;0.60;;;7.90;97.20;;;;;;5074167;28;20048;-82
2021/03/12 02:24:16;;;;;;;2.00;0.63;;;7.90;96.70;;;;;;5073421;28;20056;-81
2021/03/12 02:27:05;;;;;;;2.80;0.60;;;7.90;97.00;;;;;;5072834;28;20041;-81
2021/03/12 02:29:34;;;;;;;2.28;0.70;;;7.90;97.10;;;;;;5071831;28;20494;-81
2021/03/12 02:32:04;;;;;;;2.58;0.80;;;7.90;96.50;;;;;;5071906;28;20134;-81
2021/03/12 02:34:36;;;;;;;1.88;0.55;;;7.80;96.70;;;;;;5073427;28;20135;-82
2021/03/12 02:37:05;;;;;;;2.35;0.60;;;7.90;96.40;;;;;;5055108;28;20483;-81
2021/03/12 02:39:34;;;;;;;2.85;0.90;;;7.80;96.00;;;;;;5074408;28;20506;-82
2021/03/12 02:42:03;;;;;;;3.35;0.80;;;7.80;96.50;;;;;;5074321;28;20143;-82
2021/03/12 02:44:33;;;;;;;2.53;0.60;;;7.80;95.90;;;;;;5086474;28;20080;-81
2021/03/12 02:47:11;;;;;;;4.13;0.85;;;7.60;96.30;;;;;;5072468;28;20040;-81
2021/03/12 02:49:38;;;;;;;6.85;0.88;;;7.70;96.00;;;;;;5072094;28;20651;-82
2021/03/12 02:52:07;;;;;;;2.53;0.60;;;7.80;95.30;;;;;;5055483;28;20049;-81
2021/03/12 02:54:34;;;;;;;3.05;0.63;;;7.80;95.60;;;;;;5073137;28;20052;-81
2021/03/12 02:57:01;;;;;;;3.80;0.60;;;7.80;95.30;;;;;;5073861;28;20135;-82
2021/03/12 02:59:29;;;;;;;5.07;0.70;;;7.80;95.50;;;;;;5105283;28;20146;-82
2021/03/12 03:01:56;;;;;;;3.15;0.95;;;7.70;95.90;;;;;;5070018;28;20127;-83
2021/03/12 03:04:25;;;;;;;4.53;0.52;;;7.60;95.80;;;;;;5076612;28;20139;-83
2021/03/12 03:06:52;;;;;;;3.83;0.60;;;7.60;95.70;;;;;;5074582;28;20083;-81
2021/03/12 03:09:20;;;;;;;2.78;0.60;;;7.60;95.90;;;;;;5075631;28;20136;-81
2021/03/12 03:11:47;;;;;;;3.45;0.63;;;7.60;95.80;;;;;;5070979;28;20053;-81
2021/03/12 03:14:16;;;;;;;2.45;0.60;;;7.60;95.80;;;;;;5069945;28;20127;-83
2021/03/12 03:16:46;;;;;;;1.30;0.50;;;7.60;96.00;;;;;;5074921;28;20124;-82
2021/03/12 03:19:15;;;;;;;3.40;0.75;;;7.60;95.60;;;;;;5076121;28;20071;-82
2021/03/12 03:21:43;;;;;;;3.08;0.70;;;7.60;95.50;;;;;;5076518;28;20040;-83
2021/03/12 03:24:11;;;;;;;3.85;0.70;;;7.50;95.70;;;;;;5075750;28;20124;-82
2021/03/12 03:26:38;;;;;;;3.92;0.60;;;7.60;95.60;;;;;;5091407;28;20045;-83
2021/03/12 03:29:06;;;;;;;3.33;0.60;;;7.60;95.60;;;;;;5074710;28;20135;-82
2021/03/12 03:31:34;;;;;;;3.97;0.98;;;7.60;95.60;;;;;;5074917;28;20048;-82
2021/03/12 03:34:01;;;;;;;3.08;0.70;;;7.50;95.60;;;;;;5073668;28;20055;-81
2021/03/12 03:36:28;;;;;;;1.85;0.50;;;7.50;95.60;;;;;;5071210;28;20048;-81
2021/03/12 03:38:55;;;;;;;2.30;0.60;;;7.40;95.60;;;;;;5073667;28;20055;-82
2021/03/12 03:41:22;;;;;;;3.88;0.65;;;7.40;95.80;;;;;;5072603;28;20609;-82
2021/03/12 03:43:51;;;;;;;4.50;1.02;;;7.50;95.80;;;;;;5073755;28;20070;-82
2021/03/12 03:46:18;;;;;;;2.97;1.00;;;7.50;95.80;;;;;;5074839;28;20450;-82
2021/03/12 03:48:48;;;;;;;2.10;0.60;;;7.50;95.90;;;;;;5075001;28;20520;-82
2021/03/12 03:51:15;;;;;;;2.25;0.60;;;7.50;96.10;;;;;;5074845;28;20131;-82
2021/03/12 03:53:44;;;;;;;3.97;0.70;;;7.50;96.10;;;;;;5075179;28;20136;-83
2021/03/12 03:56:14;;;;;;;4.53;0.70;;;7.50;96.10;;;;;;5074937;28;20486;-81
2021/03/12 03:58:42;;;;;;;3.72;0.70;;;7.50;96.30;;;;;;5081577;28;20125;-82
2021/03/12 04:01:10;;;;;;;3.78;0.80;;;7.50;96.70;;;;;;5084353;28;20123;-83
2021/03/12 04:03:36;;;;;;;2.85;0.52;;;7.60;96.20;;;;;;5083454;28;20501;-84
2021/03/12 04:06:06;;;;;;;3.25;0.77;;;7.60;96.20;;;;;;5074853;28;20079;-83
2021/03/12 04:08:34;;;;;;;1.63;0.60;;;7.50;96.30;;;;;;5071962;28;20088;-82
2021/03/12 04:11:01;;;;;;;4.32;0.80;;;7.50;96.40;;;;;;5072673;28;20123;-83
2021/03/12 04:13:29;;;;;;;3.53;1.00;;;7.60;96.10;;;;;;5072083;28;20142;-83
2021/03/12 04:15:56;;;;;;;2.20;0.57;;;7.70;95.60;;;;;;5072371;28;20131;-83
2021/03/12 04:18:23;;;;;;;4.13;1.52;;;7.60;95.70;;;;;;5071311;28;20094;-82
2021/03/12 04:20:50;;;;;;;1.85;0.40;;;7.60;94.80;;;;;;5072699;28;20125;-82
2021/03/12 04:23:19;;;;;;;4.80;0.95;;;7.60;95.00;;;;;;5071757;28;20048;-83
2021/03/12 04:25:46;;;;;;;4.00;0.80;;;7.70;94.50;;;;;;5071816;28;20135;-82
2021/03/12 04:28:13;;;;;;;3.13;0.75;;;7.60;94.70;;;;;;5072390;28;20135;-80
2021/03/12 04:30:41;;;;;;;5.03;0.93;;;7.60;94.50;;;;;;5071500;28;20498;-80
2021/03/12 04:33:09;;;;;;;2.95;0.60;;;7.60;94.50;;;;;;5071727;28;20123;-83
2021/03/12 04:35:36;;;;;;;2.92;0.93;;;7.70;93.80;;;;;;5071718;28;20087;-82
2021/03/12 04:38:03;;;;;;;2.90;0.50;;;7.60;94.20;;;;;;5071632;28;20490;-83
2021/03/12 04:40:32;;;;;;;2.47;0.60;;;7.60;93.80;;;;;;5071825;28;20124;-83
2021/03/12 04:42:59;;;;;;;4.18;1.13;;;7.60;94.00;;;;;;5071007;28;20052;-83
2021/03/12 04:45:27;;;;;;;3.78;0.95;;;7.60;93.90;;;;;;5071544;28;20733;-84
2021/03/12 04:47:56;;;;;;;2.65;0.80;;;7.60;94.00;;;;;;5072144;28;20071;-83
2021/03/12 04:50:25;;;;;;;2.08;0.60;;;7.60;94.00;;;;;;5070877;28;20094;-82
2021/03/12 04:52:55;;;;;;;2.42;0.60;;;7.50;94.10;;;;;;5067095;28;20143;-82
2021/03/12 04:55:22;;;;;;;4.95;0.80;;;7.40;94.00;;;;;;5071148;28;20055;-83
2021/03/12 04:57:50;;;;;;;2.85;0.70;;;7.50;94.00;;;;;;5071205;28;20156;-81
2021/03/12 05:00:20;;;;;;;3.05;0.70;;;7.50;94.30;;;;;;5070098;28;20125;-82
2021/03/12 05:02:47;;;;;;;4.05;0.80;;;7.50;94.30;;;;;;5070473;28;20131;-83
2021/03/12 05:05:16;;;;;;;2.55;0.68;;;7.50;94.40;;;;;;5071594;28;20397;-85
2021/03/12 05:07:44;;;;;;;3.22;0.68;;;7.50;94.30;;;;;;5071311;28;20044;-81
2021/03/12 05:10:12;;;;;;;3.45;0.80;;;7.40;94.50;;;;;;5072243;28;20123;-82
2021/03/12 05:12:39;;;;;;;4.22;0.80;;;7.40;94.40;;;;;;5072697;28;20087;-83
2021/03/12 05:15:08;;;;;;;3.67;1.08;;;7.40;94.10;;;;;;5072199;28;20091;-81
2021/03/12 05:17:35;;;;;;;2.35;0.60;;;7.30;94.10;;;;;;5071131;28;20513;-82
2021/03/12 05:20:03;;;;;;;3.15;0.57;;;7.30;94.20;;;;;;5071109;28;20159;-82
2021/03/12 05:22:30;;;;;;;4.50;0.80;;;7.30;93.50;;;;;;5070684;28;20495;-83
2021/03/12 05:24:57;;;;;;;3.97;0.80;;;7.40;93.30;;;;;;5070890;28;20450;-84
2021/03/12 05:27:23;;;;;;;4.53;0.85;;;7.30;92.30;;;;;;5071234;28;20139;-83
2021/03/12 05:29:50;;;;;;;6.03;1.02;;;7.30;92.20;;;;;;5071056;28;20100;-84
2021/03/12 05:32:17;;;;;;;3.65;0.80;;;7.20;91.50;;;;;;5077189;28;20132;-84
2021/03/12 05:34:44;;;;;;;3.03;0.88;;;7.20;91.80;;;;;;5079236;28;20049;-83
2021/03/12 05:37:11;;;;;;;3.83;1.05;;;7.10;92.20;;;;;;5070913;28;20049;-83
2021/03/12 05:39:38;;;;;;;5.28;0.70;;;7.10;91.70;;;;;;5081908;28;20079;-83
2021/03/12 05:42:07;;;;;;;5.32;0.90;;;7.00;92.20;;;;;;5080439;28;20083;-83
2021/03/12 05:44:34;;;;;;;3.83;1.00;;;6.90;92.50;;;;;;5082315;28;20068;-84
2021/03/12 05:47:02;;;;;;;2.38;0.65;;;6.90;92.50;;;;;;5082952;28;20044;-85
2021/03/12 05:49:30;;;;;;;2.55;0.57;;;6.80;93.00;;;;;;5080543;28;20048;-85
2021/03/12 05:51:57;;;;;;;3.38;0.80;;;6.90;93.10;;;;;;5071367;28;20144;-88
2021/03/12 05:54:24;;;;;;;2.03;0.70;;;6.80;93.30;;;;;;5070378;28;20068;-89
2021/03/12 05:56:51;;;;;;;3.97;0.63;;;6.90;93.10;;;;;;5074237;28;20406;-80
2021/03/12 05:59:18;;;;;;;2.60;0.65;;;6.80;93.50;;;;;;5068148;28;20570;-82
2021/03/12 06:01:45;;;;;;;3.58;0.77;;;6.90;93.20;;;;;;5072726;28;20048;-80
2021/03/12 06:04:13;;;;;;;2.80;0.70;;;7.00;93.30;;;;;;5053690;28;20087;-83
2021/03/12 06:06:43;;;;;;;4.47;1.00;;;7.10;92.70;;;;;;5070557;28;20094;-83
2021/03/12 06:09:09;;;;;;;3.85;0.85;;;7.00;93.20;;;;;;5068650;28;20428;-82
2021/03/12 06:11:36;;;;;;;5.35;0.90;;;6.90;93.30;;;;;;5051814;28;20498;-81
2021/03/12 06:14:05;;;;;;;5.15;1.00;;;7.00;93.20;;;;;;5066518;28;20443;-83
2021/03/12 06:16:32;;;;;;;3.10;0.80;;;7.00;93.20;;;;;;5069421;28;20040;-82
2021/03/12 06:19:16;;;;;;;3.88;0.90;;;7.00;93.50;;;;;;5050466;28;20183;-82
2021/03/12 06:21:45;;;;;;;4.15;0.95;;;7.10;93.10;;;;;;5070546;28;20438;-83
2021/03/12 06:24:31;;;;;;;3.85;0.90;;;7.10;93.10;;;;;;5064454;28;20167;-80
2021/03/12 06:26:59;;;;;;;4.38;1.08;;;7.10;93.30;;;;;;5067376;28;20086;-80
2021/03/12 06:29:34;;;;;;;4.63;0.88;;;7.20;93.00;;;;;;5049609;28;20387;-80
2021/03/12 06:32:03;;;;;;;5.28;1.00;;;7.10;93.10;;;;;;5079924;28;20048;-80
2021/03/12 06:34:29;;;;;;;4.03;1.23;;;7.20;93.10;;;;;;5067203;28;20040;-84
2021/03/12 06:36:58;;;;;;;4.70;0.98;;;7.10;92.90;;;;;;5070807;28;20124;-87
2021/03/12 06:39:34;;;;;;;4.30;1.02;;;7.10;93.10;;;;;;5067790;28;20131;-90
2021/03/12 06:42:09;;;;;;;6.05;1.30;;;7.10;93.50;;;;;;5073152;28;20041;-92
2021/03/12 06:44:37;;;;;;;4.38;1.08;;;7.10;93.50;;;;;;5076167;28;20135;-90
2021/03/12 06:47:05;;;;;;;4.60;1.10;;;7.10;93.80;;;;;;5068648;28;20397;-81
2021/03/12 06:49:33;;;;;;;4.95;1.00;;;7.10;93.90;;;;;;5057484;28;20390;-80
2021/03/12 06:52:04;;;;;;;5.20;0.90;;;7.20;93.80;;;;;;5081644;28;20055;-80
2021/03/12 06:54:32;;;;;;;4.60;0.80;;;7.20;93.70;;;;;;5063996;28;20057;-81
2021/03/12 06:57:00;;;;;;;4.07;0.93;;;7.30;93.70;;;;;;5058153;28;20044;-80
2021/03/12 06:59:29;;;;;;;3.83;0.90;;;7.30;93.60;;;;;;5072154;28;20080;-81
2021/03/12 07:02:01;;;;;;;6.30;1.20;;;7.30;94.10;;;;;;5069329;28;20056;-80
2021/03/12 07:04:29;;;;;;;5.18;0.98;;;7.30;94.00;;;;;;5058428;28;20143;-80
2021/03/12 07:06:58;;;;;;;5.07;1.00;;;7.30;94.00;;;;;;5054184;28;20131;-81
2021/03/12 07:09:28;;;;;;;4.88;1.00;;;7.30;94.20;;;;;;5056420;28;20060;-83
2021/03/12 07:11:57;;;;;;;4.13;0.90;;;7.30;94.30;;;;;;5053973;28;20068;-81
2021/03/12 07:14:24;;;;;;;6.85;1.20;;;7.40;94.00;;;;;;5053887;28;20477;-81
2021/03/12 07:16:52;;;;;;;3.75;0.90;;;7.40;93.90;;;;;;5054207;28;20078;-83
2021/03/12 07:19:22;;;;;;;4.15;0.90;;;7.40;93.60;;;;;;5076349;28;20134;-81
2021/03/12 07:21:52;;;;;;;3.33;0.80;;;7.50;93.60;;;;;;5067560;28;20083;-82
2021/03/12 07:24:22;;;;;;;3.78;0.90;;;7.50;93.50;;;;;;5067385;28;20064;-82
2021/03/12 07:26:55;;;;;;;5.47;1.10;;;7.60;93.60;;;;;;5060033;28;20585;-82
2021/03/12 07:29:24;;;;;;;2.88;1.02;;;7.60;93.50;;;;;;5085524;28;20139;-81
2021/03/12 07:31:53;;;;;;;2.55;1.10;;;7.60;93.80;;;;;;5075840;28;20463;-82
2021/03/12 07:34:24;;;;;;;2.25;0.60;;;7.60;94.00;;;;;;5080672;28;20510;-82
2021/03/12 07:36:57;;;;;;;3.60;0.90;;;7.60;93.50;;;;;;5084965;28;20135;-83
2021/03/12 07:39:25;;;;;;;3.53;0.93;;;7.70;93.30;;;;;;5058021;28;20056;-83
2021/03/12 07:41:55;;;;;;;4.82;1.15;;;7.80;93.00;;;;;;5075131;28;20622;-83
2021/03/12 07:44:22;;;;;;;4.32;0.85;;;7.80;93.00;;;;;;5073020;28;20052;-83
2021/03/12 07:46:52;;;;;;;4.00;0.82;;;7.80;93.00;;;;;;5074896;28;20111;-91
2021/03/12 07:49:36;;;;;;;4.80;0.95;;;7.80;93.00;;;;;;5063139;28;20040;-91
2021/03/12 07:52:05;;;;;;;3.03;0.93;;;7.70;93.10;;;;;;5070972;28;20604;-90
2021/03/12 07:54:49;;;;;;;3.10;0.80;;;7.70;93.00;;;;;;5069593;28;20057;-91
2021/03/12 07:57:38;;;;;;;5.10;1.00;;;7.70;93.20;;;;;;5057976;28;20136;-82
2021/03/12 08:00:08;;;;;;;4.57;0.77;;;7.70;93.20;;;;;;5067393;28;20095;-82
2021/03/12 08:02:57;;;;;;;2.83;0.70;;;7.60;93.40;;;;;;5072725;28;20127;-81
2021/03/12 08:05:33;;;;;;;2.30;0.70;;;7.70;93.50;;;;;;5069016;28;20482;-81
2021/03/12 08:08:01;;;;;;;3.17;0.80;;;7.80;93.40;;;;;;5060467;28;20045;-82
2021/03/12 08:10:28;;;;;;;2.90;0.70;;;7.90;93.20;;;;;;5078640;28;20056;-83
2021/03/12 08:12:56;;;;;;;3.28;0.77;;;7.70;93.70;;;;;;5067690;28;20049;-84
2021/03/12 08:15:25;;;;;;;3.20;0.68;;;8.10;92.30;;;;;;5077529;28;20498;-83
2021/03/12 08:18:24;;;;;;;4.70;0.73;;;7.90;92.50;;;;;;5095504;28;20041;-88
2021/03/12 08:20:51;;;;;;;4.82;0.90;;;7.90;92.50;;;;;;5081347;28;20124;-86
2021/03/12 08:23:33;;;;;;;4.70;1.00;;;7.90;92.60;;;;;;5072355;28;20155;-87
2021/03/12 08:26:00;;;;;;;2.92;0.65;;;7.90;93.00;;;;;;5071119;28;20048;-87
2021/03/12 08:28:34;;;;;;;2.90;0.90;;;7.90;93.10;;;;;;5077629;28;20041;-87
2021/03/12 08:31:02;;;;;;;3.10;0.80;;;8.00;92.50;;;;;;5077811;28;20055;-91
2021/03/12 08:33:35;;;;;;;4.18;1.05;;;7.90;92.50;;;;;;5056104;28;20445;-83
2021/03/12 08:36:02;;;;;;;4.35;0.80;;;7.90;92.50;;;;;;5070042;28;20076;-86
2021/03/12 08:38:45;;;;;;;3.53;0.80;;;8.00;92.40;;;;;;5072359;28;20107;-86
2021/03/12 08:41:18;;;;;;;5.82;0.80;;;8.00;92.70;;;;;;5071652;28;20044;-86
2021/03/12 08:43:54;;;;;;;5.22;0.80;;;8.00;93.10;;;;;;5079251;28;20070;-88
2021/03/12 08:46:25;;;;;;;3.53;0.93;;;8.10;92.60;;;;;;5091282;28;20052;-87
2021/03/12 08:48:55;;;;;;;5.25;1.02;;;8.10;92.30;;;;;;5081889;28;20074;-88
2021/03/12 08:51:24;;;;;;;5.20;1.40;;;8.10;92.50;;;;;;5076128;28;20123;-86
2021/03/12 08:53:55;;;;;;;4.20;0.80;;;8.10;91.90;;;;;;5070377;28;20072;-85
2021/03/12 08:56:29;;;;;;;5.57;1.00;;;8.30;91.90;;;;;;5070858;28;20135;-86
2021/03/12 08:58:58;;;;;;;2.65;0.90;;;8.40;91.40;;;;;;5067595;28;20053;-89
2021/03/12 09:01:27;;;;;;;4.03;1.15;;;8.40;92.10;;;;;;5063045;28;20055;-81
2021/03/12 09:03:56;;;;;;;3.13;0.77;;;8.50;91.50;;;;;;5038046;28;20127;-81
2021/03/12 09:06:25;;;;;;;3.83;1.08;;;8.50;91.80;;;;;;5070138;28;20135;-80
2021/03/12 09:08:54;;;;;;;5.38;0.95;;;8.60;91.00;;;;;;5070945;28;20136;-81
2021/03/12 09:11:24;;;;;;;3.65;0.93;;;8.60;91.30;;;;;;5069667;28;20474;-80
2021/03/12 09:13:57;;;;;;;3.70;0.98;;;8.60;91.20;;;;;;5068369;28;20131;-80
2021/03/12 09:16:27;;;;;;;2.65;0.73;;;8.70;91.20;;;;;;5083250;28;20075;-80
2021/03/12 09:18:55;;;;;;;4.30;0.90;;;8.60;91.40;;;;;;5076004;28;20103;-82
2021/03/12 09:21:24;;;;;;;3.65;1.10;;;8.70;90.50;;;;;;5071279;28;20108;-83
2021/03/12 09:23:53;;;;;;;4.18;0.90;;;8.60;91.00;;;;;;5071988;28;20064;-89
2021/03/12 09:26:22;;;;;;;6.03;1.20;;;8.80;90.60;;;;;;5072798;28;20048;-87
2021/03/12 09:28:52;;;;;;;3.33;0.90;;;8.90;90.00;;;;;;5065082;28;20401;-88
2021/03/12 09:31:21;;;;;;;4.95;1.20;;;8.90;90.40;;;;;;5069446;28;20085;-80
2021/03/12 09:33:51;;;;;;;7.25;1.17;;;8.90;90.20;;;;;;5070239;28;20068;-86
2021/03/12 09:36:29;;;;;;;5.95;1.20;;;9.00;89.00;;;;;;5070842;28;20133;-85
2021/03/12 09:39:04;;;;;;;5.43;1.25;;;8.90;89.80;;;;;;5071332;28;20135;-86
2021/03/12 09:41:32;;;;;;;3.53;0.90;;;9.00;89.00;;;;;;5071267;28;20147;-83
2021/03/12 09:44:07;;;;;;;4.07;0.90;;;9.00;88.30;;;;;;5070763;28;20136;-85
2021/03/12 09:46:38;;;;;;;2.95;0.80;;;8.90;88.30;;;;;;5069857;28;20083;-84
2021/03/12 09:49:11;;;;;;;4.05;1.00;;;8.90;87.00;;;;;;5065282;28;20045;-84
2021/03/12 09:51:41;;;;;;;3.55;0.88;;;9.00;87.10;;;;;;5093844;28;20049;-84
2021/03/12 09:54:09;;;;;;;4.68;1.00;;;8.90;85.10;;;;;;5063694;28;20136;-80
2021/03/12 09:56:36;;;;;;;3.38;0.82;;;8.90;85.60;;;;;;5069268;28;20106;-85
2021/03/12 09:59:04;;;;;;;7.00;1.08;;;9.00;86.10;;;;;;5068998;28;20127;-82
2021/03/12 10:01:37;;;;;;;6.28;1.17;;;9.20;85.00;;;;;;5074454;28;20481;-84
2021/03/12 10:04:04;;;;;;;4.28;1.02;;;9.30;82.60;;;;;;5082108;28;20056;-84
2021/03/12 10:06:31;;;;;;;4.93;1.13;;;9.20;82.70;;;;;;5072190;28;20505;-81
2021/03/12 10:09:07;;;;;;;5.53;1.20;;;9.20;83.20;;;;;;5073078;28;20080;-83
2021/03/12 10:11:47;;;;;;;4.70;0.93;;;9.30;81.70;;;;;;5073506;28;20107;-83
2021/03/12 10:14:37;;;;;;;5.32;1.48;;;9.10;82.10;;;;;;5075019;28;20052;-82
2021/03/12 10:17:19;;;;;;;4.40;1.15;;;9.20;81.30;;;;;;5073388;28;20537;-82
2021/03/12 10:19:55;;;;;;;4.78;1.17;;;9.20;83.40;;;;;;5074458;28;20060;-82
2021/03/12 10:22:31;;;;;;;4.88;1.00;;;9.30;82.80;;;;;;5072649;28;20135;-82
2021/03/12 10:25:07;;;;;;;3.75;0.75;;;9.30;83.20;;;;;;5074071;28;20117;-82
2021/03/12 10:27:37;;;;;;;7.82;0.90;;;9.30;84.20;;;;;;5074970;28;20251;-82
2021/03/12 10:30:10;;;;;;;4.68;1.33;;;9.40;80.10;;;;;;5074473;28;20477;-82
2021/03/12 10:32:39;;;;;;;4.10;1.08;;;9.50;79.60;;;;;;5073387;28;20044;-81
2021/03/12 10:35:20;;;;;;;4.90;0.95;;;9.50;79.60;;;;;;5072871;28;20048;-81
2021/03/12 10:37:50;;;;;;;3.38;0.80;;;9.60;80.50;;;;;;5074099;28;20128;-82
2021/03/12 10:40:17;;;;;;;4.30;0.90;;;9.80;77.80;;;;;;5072943;28;20143;-82
2021/03/12 10:42:44;;;;;;;3.25;0.80;;;9.80;77.80;;;;;;5072703;28;20076;-82
2021/03/12 10:45:20;;;;;;;5.95;0.90;;;10.00;75.30;;;;;;5073978;28;20080;-82
2021/03/12 10:48:03;;;;;;;3.78;1.27;;;10.00;74.60;;;;;;5073644;28;20140;-81
2021/03/12 10:50:35;;;;;;;3.60;0.80;;;10.10;75.70;;;;;;5073000;28;20080;-83
2021/03/12 10:53:12;;;;;;;5.40;1.33;;;10.20;71.00;;;;;;5072795;28;20190;-81
2021/03/12 10:55:44;;;;;;;3.13;0.77;;;10.20;70.80;;;;;;5072845;28;20139;-82
2021/03/12 10:58:25;;;;;;;4.40;0.85;;;10.20;70.10;;;;;;5073317;28;20131;-82
2021/03/12 11:01:13;;;;;;;4.38;0.80;;;10.20;70.10;;;;;;5073868;28;20064;-82
2021/03/12 11:03:42;;;;;;;4.03;0.82;;;10.30;67.60;;;;;;5073648;28;20397;-82
2021/03/12 11:06:09;;;;;;;3.88;1.02;;;10.30;69.00;;;;;;5073146;28;20050;-82
2021/03/12 11:08:38;;;;;;;3.88;0.90;;;10.40;67.40;;;;;;5072948;28;20068;-81
2021/03/12 11:11:07;;;;;;;2.60;0.63;;;10.30;66.90;;;;;;5073401;28;20052;-82
2021/03/12 11:13:34;;;;;;;3.47;0.70;;;10.30;66.70;;;;;;5072676;28;20045;-82
2021/03/12 11:16:03;;;;;;;6.13;1.40;;;10.30;70.60;;;;;;5073405;28;20173;-82
2021/03/12 11:18:31;;;;;;;4.47;1.05;;;10.20;78.50;;;;;;5075496;28;20059;-82
2021/03/12 11:21:00;;;;;;;6.18;1.00;;;10.00;83.00;;;;;;5081929;28;20060;-81
2021/03/12 11:23:29;;;;;;;5.43;1.25;;;9.80;85.30;;;;;;5083068;28;20090;-83
2021/03/12 11:25:58;;;;;;;2.78;0.82;;;9.70;88.50;;;;;;5080430;28;20059;-82
2021/03/12 11:28:25;;;;;;;5.28;1.13;;;9.60;88.40;;;;;;5077741;28;20083;-83
2021/03/12 11:30:52;;;;;;;4.35;0.90;;;9.30;89.60;;;;;;5071614;28;20139;-84
2021/03/12 11:33:19;;;;;;;4.35;1.02;;;9.10;90.60;;;;;;5071525;28;20136;-82
2021/03/12 11:35:46;;;;;;;3.78;0.95;;;9.10;91.50;;;;;;5072613;28;20550;-83
2021/03/12 11:38:15;;;;;;;3.30;0.77;;;9.00;92.20;;;;;;5072675;28;20088;-83
2021/03/12 11:40:42;;;;;;;3.58;0.70;;;9.10;92.50;;;;;;5055383;28;20052;-83
2021/03/12 11:43:10;;;;;;;4.25;0.88;;;9.00;93.00;;;;;;5073096;28;20081;-84
2021/03/12 11:45:38;;;;;;;4.53;1.10;;;9.10;93.10;;;;;;5071262;28;20060;-82
2021/03/12 11:48:06;;;;;;;4.82;1.17;;;9.30;93.50;;;;;;5072333;28;20057;-82
2021/03/12 11:50:35;;;;;;;4.03;1.02;;;9.30;93.20;;;;;;5071292;28;20087;-81
2021/03/12 11:53:03;;;;;;;3.38;1.10;;;9.30;92.90;;;;;;5071624;28;20052;-82
2021/03/12 11:55:30;;;;;;;5.05;1.10;;;9.20;93.20;;;;;;5065692;28;20525;-81
2021/03/12 11:57:56;;;;;;;3.05;0.93;;;9.10;93.30;;;;;;5064524;28;20356;-82
2021/03/12 12:00:28;;;;;;;3.17;0.82;;;8.90;93.40;;;;;;5079424;28;20198;-80
2021/03/12 12:02:54;;;;;;;3.05;0.60;;;8.80;92.20;;;;;;5072030;28;20106;-82
2021/03/12 12:05:21;;;;;;;3.53;0.73;;;8.70;92.90;;;;;;5091601;28;20478;-81
2021/03/12 12:07:48;;;;;;;1.63;0.50;;;8.60;93.40;;;;;;5092106;28;20127;-81
2021/03/12 12:10:15;;;;;;;1.58;0.50;;;8.70;91.40;;;;;;5091883;28;20055;-81
2021/03/12 12:12:45;;;;;;;1.48;0.50;;;8.70;91.40;;;;;;5082008;28;20044;-80
2021/03/12 12:15:15;;;;;;;1.20;0.40;;;8.90;90.70;;;;;;5071621;28;20534;-82
2021/03/12 12:17:43;;;;;;;1.45;0.45;;;9.00;90.60;;;;;;5070651;28;20150;-79
2021/03/12 12:20:12;;;;;;;3.22;0.60;;;9.20;89.60;;;;;;5071057;28;20090;-80
2021/03/12 12:22:39;;;;;;;2.25;0.50;;;9.20;88.60;;;;;;5071489;28;20483;-81
2021/03/12 12:25:08;;;;;;;11.85;4.53;;;9.40;87.90;;;;;;5070768;28;20687;-80
2021/03/12 12:27:34;;;;;;;15.02;5.50;;;9.60;87.80;;;;;;5072046;28;20090;-81
2021/03/12 12:30:01;;;;;;;3.92;0.80;;;9.80;86.60;;;;;;5071461;28;20141;-80
2021/03/12 12:32:28;;;;;;;2.45;0.80;;;10.00;85.20;;;;;;5073388;28;20540;-79
2021/03/12 12:34:55;;;;;;;3.13;0.88;;;10.30;83.60;;;;;;5078485;28;20090;-82
2021/03/12 12:37:22;;;;;;;3.70;0.90;;;10.50;83.20;;;;;;5072039;28;20156;-82
2021/03/12 12:39:49;;;;;;;3.75;1.10;;;10.60;82.20;;;;;;5069842;28;20056;-80
2021/03/12 12:42:16;;;;;;;3.92;1.25;;;10.70;83.80;;;;;;5070906;28;20071;-79
2021/03/12 12:44:42;;;;;;;3.55;1.10;;;10.90;81.80;;;;;;5070159;28;20131;-74
2021/03/12 12:47:09;;;;;;;4.43;1.00;;;11.10;78.10;;;;;;5069521;28;20915;-77
2021/03/12 12:49:36;;;;;;;2.85;0.82;;;11.10;75.40;;;;;;5068731;28;20087;-80
2021/03/12 12:52:04;;;;;;;3.80;0.80;;;11.10;76.10;;;;;;5070013;28;20144;-78
2021/03/12 12:54:31;;;;;;;3.25;1.02;;;11.00;71.50;;;;;;5070884;28;20446;-80
2021/03/12 12:56:58;;;;;;;3.50;0.80;;;11.00;68.70;;;;;;5071006;28;20044;-79
2021/03/12 12:59:25;;;;;;;2.45;0.70;;;11.10;68.90;;;;;;5070522;28;20115;-81
2021/03/12 13:01:52;;;;;;;5.47;0.95;;;11.20;66.00;;;;;;5069743;28;20075;-81
2021/03/12 13:04:19;;;;;;;2.78;0.80;;;11.30;65.30;;;;;;5070424;28;20421;-79
2021/03/12 13:06:45;;;;;;;3.10;0.93;;;11.50;61.50;;;;;;5070340;28;20057;-79